createdAt,value
2018-05-03T00:00:28.566Z,11.30
2018-05-03T00:02:56.043Z,11.30
2018-05-03T00:05:23.466Z,11.20
2018-05-03T00:07:51.700Z,11.20
2018-05-03T00:10:19.162Z,11.20
2018-05-03T00:12:46.634Z,11.10
2018-05-03T00:15:14.059Z,11.10
2018-05-03T00:17:42.259Z,11.10
2018-05-03T00:20:10.478Z,11.10
2018-05-03T00:22:37.897Z,11.10
2018-05-03T00:25:05.322Z,11.10
2018-05-03T00:27:32.735Z,11.10
2018-05-03T00:30:00.246Z,11.10
2018-05-03T00:32:27.724Z,11.00
2018-05-03T00:34:55.207Z,11.00
2018-05-03T00:37:22.630Z,11.00
2018-05-03T00:39:50.822Z,10.90
2018-05-03T00:42:19.007Z,10.90
2018-05-03T00:44:47.221Z,10.90
2018-05-03T00:47:14.635Z,10.90
2018-05-03T00:49:42.166Z,10.90
2018-05-03T00:52:09.875Z,10.90
2018-05-03T00:54:48.117Z,10.80
2018-05-03T00:57:15.638Z,10.80
2018-05-03T00:59:43.065Z,10.80
2018-05-03T01:02:11.290Z,10.80
2018-05-03T01:04:38.754Z,10.80
2018-05-03T01:07:06.174Z,10.80
2018-05-03T01:09:33.602Z,10.70
2018-05-03T01:12:01.022Z,10.70
2018-05-03T01:14:28.455Z,10.70
2018-05-03T01:16:55.874Z,10.60
2018-05-03T01:19:24.070Z,10.60
2018-05-03T01:21:52.261Z,10.60
2018-05-03T01:24:20.468Z,10.60
2018-05-03T01:26:47.885Z,10.60
2018-05-03T01:29:15.311Z,10.60
2018-05-03T01:31:42.769Z,10.60
2018-05-03T01:34:10.244Z,10.60
2018-05-03T01:36:37.662Z,10.60
2018-05-03T01:39:06.042Z,10.60
2018-05-03T01:41:33.486Z,10.60
2018-05-03T01:44:00.911Z,10.60
2018-05-03T01:46:29.094Z,10.60
2018-05-03T01:48:57.285Z,10.50
2018-05-03T01:51:25.479Z,10.50
2018-05-03T01:53:53.690Z,10.50
2018-05-03T01:56:21.111Z,10.50
2018-05-03T01:58:48.623Z,10.50
2018-05-03T02:01:16.055Z,10.50
2018-05-03T02:03:43.467Z,10.50
2018-05-03T02:06:10.934Z,10.50
2018-05-03T02:08:38.405Z,10.40
2018-05-03T02:11:05.829Z,10.40
2018-05-03T02:13:33.443Z,10.30
2018-05-03T02:16:00.870Z,10.30
2018-05-03T02:18:28.382Z,10.30
2018-05-03T02:20:55.859Z,10.30
2018-05-03T02:23:23.279Z,10.30
2018-05-03T02:25:50.706Z,10.30
2018-05-03T02:28:18.170Z,10.30
2018-05-03T02:30:45.600Z,10.30
2018-05-03T02:33:13.010Z,10.30
2018-05-03T02:35:40.475Z,10.30
2018-05-03T02:38:07.891Z,10.30
2018-05-03T02:40:36.085Z,10.30
2018-05-03T02:43:03.507Z,10.20
2018-05-03T02:45:30.939Z,10.30
2018-05-03T02:47:59.151Z,10.20
2018-05-03T02:50:26.578Z,10.20
2018-05-03T02:52:54.003Z,10.20
2018-05-03T02:55:21.428Z,10.20
2018-05-03T02:58:07.274Z,10.20
2018-05-03T03:00:52.522Z,10.20
2018-05-03T03:03:38.474Z,10.10
2018-05-03T03:06:17.946Z,10.10
2018-05-03T03:12:27.237Z,10.10
2018-05-03T03:15:12.350Z,10.10
2018-05-03T03:17:58.229Z,10.10
2018-05-03T03:23:56.746Z,10.00
2018-05-03T03:26:52.811Z,10.00
2018-05-03T03:29:37.885Z,10.00
2018-05-03T03:32:17.262Z,10.00
2018-05-03T03:34:44.674Z,10.00
2018-05-03T03:37:24.114Z,10.00
2018-05-03T03:40:09.391Z,10.00
2018-05-03T03:45:50.265Z,10.00
2018-05-03T03:48:17.691Z,10.00
2018-05-03T03:50:45.106Z,10.00
2018-05-03T03:53:12.560Z,10.00
2018-05-03T03:55:39.974Z,10.00
2018-05-03T03:58:08.175Z,10.10
2018-05-03T04:00:35.593Z,10.00
2018-05-03T04:03:03.006Z,10.10
2018-05-03T04:05:31.210Z,10.10
2018-05-03T04:07:58.630Z,10.10
2018-05-03T04:10:26.155Z,10.10
2018-05-03T04:12:53.627Z,10.10
2018-05-03T04:15:21.063Z,10.10
2018-05-03T04:18:01.267Z,10.20
2018-05-03T04:20:46.614Z,10.10
2018-05-03T04:23:23.441Z,10.20
2018-05-03T04:26:02.846Z,10.20
2018-05-03T04:28:30.362Z,10.20
2018-05-03T04:30:57.786Z,10.20
2018-05-03T04:33:25.310Z,10.20
2018-05-03T04:35:52.772Z,10.30
2018-05-03T04:38:20.247Z,10.30
2018-05-03T04:40:47.675Z,10.30
2018-05-03T04:43:15.901Z,10.40
2018-05-03T04:45:43.375Z,10.40
2018-05-03T04:48:10.839Z,10.40
2018-05-03T04:50:38.307Z,10.50
2018-05-03T04:53:05.728Z,10.50
2018-05-03T04:55:33.256Z,10.60
2018-05-03T04:58:00.723Z,10.70
2018-05-03T05:00:28.188Z,10.80
2018-05-03T05:02:55.606Z,10.80
2018-05-03T05:05:23.051Z,10.90
2018-05-03T05:07:50.474Z,10.90
2018-05-03T05:10:18.663Z,11.00
2018-05-03T05:12:46.848Z,11.10
2018-05-03T05:15:15.063Z,11.20
2018-05-03T05:17:42.478Z,11.10
2018-05-03T05:20:09.998Z,11.20
2018-05-03T05:22:37.414Z,11.30
2018-05-03T05:25:04.938Z,11.30
2018-05-03T05:27:32.362Z,11.30
2018-05-03T05:29:59.797Z,11.40
2018-05-03T05:32:27.245Z,11.40
2018-05-03T05:34:54.714Z,11.50
2018-05-03T05:37:22.135Z,11.50
2018-05-03T05:39:49.558Z,11.60
2018-05-03T05:42:17.019Z,11.70
2018-05-03T05:44:44.499Z,11.80
2018-05-03T05:47:11.915Z,11.90
2018-05-03T05:49:39.537Z,12.00
2018-05-03T05:52:07.007Z,12.10
2018-05-03T05:54:34.435Z,12.10
2018-05-03T05:57:01.851Z,12.20
2018-05-03T05:59:29.292Z,12.30
2018-05-03T06:01:57.469Z,12.40
2018-05-03T06:04:25.684Z,12.50
2018-05-03T06:06:53.103Z,12.40
2018-05-03T06:09:20.622Z,12.50
2018-05-03T06:11:48.047Z,12.60
2018-05-03T06:14:15.469Z,12.70
2018-05-03T06:16:42.935Z,12.70
2018-05-03T06:19:10.338Z,12.80
2018-05-03T06:21:37.771Z,12.80
2018-05-03T06:24:05.195Z,12.80
2018-05-03T06:26:32.703Z,12.90
2018-05-03T06:29:00.174Z,12.90
2018-05-03T06:31:27.647Z,12.90
2018-05-03T06:33:55.071Z,12.90
2018-05-03T06:36:22.499Z,12.90
2018-05-03T06:38:50.025Z,12.90
2018-05-03T06:41:17.431Z,12.90
2018-05-03T06:43:44.894Z,13.00
2018-05-03T06:46:12.317Z,13.00
2018-05-03T06:48:39.738Z,13.10
2018-05-03T06:51:07.161Z,13.10
2018-05-03T06:53:34.670Z,13.20
2018-05-03T06:56:02.100Z,13.20
2018-05-03T06:58:29.623Z,13.20
2018-05-03T07:00:57.050Z,13.30
2018-05-03T07:03:25.266Z,13.40
2018-05-03T07:05:52.745Z,13.40
2018-05-03T07:08:20.167Z,13.40
2018-05-03T07:10:47.678Z,13.40
2018-05-03T07:13:15.105Z,13.50
2018-05-03T07:15:43.297Z,13.60
2018-05-03T07:18:10.803Z,13.50
2018-05-03T07:20:38.229Z,13.60
2018-05-03T07:23:05.641Z,13.60
2018-05-03T07:25:33.118Z,13.60
2018-05-03T07:28:00.589Z,13.60
2018-05-03T07:30:28.055Z,13.70
2018-05-03T07:32:55.469Z,13.70
2018-05-03T07:35:22.902Z,13.80
2018-05-03T07:37:50.366Z,13.80
2018-05-03T07:40:17.834Z,13.90
2018-05-03T07:42:45.299Z,13.90
2018-05-03T07:45:12.722Z,14.00
2018-05-03T07:47:40.246Z,14.00
2018-05-03T07:50:07.686Z,14.10
2018-05-03T07:52:35.874Z,14.10
2018-05-03T07:55:04.087Z,14.20
2018-05-03T07:57:31.559Z,14.20
2018-05-03T07:59:58.987Z,14.30
2018-05-03T08:02:26.397Z,14.40
2018-05-03T08:04:53.830Z,14.40
2018-05-03T08:07:22.054Z,14.60
2018-05-03T08:09:49.517Z,14.60
2018-05-03T08:12:16.994Z,14.70
2018-05-03T08:14:44.459Z,14.70
2018-05-03T08:17:11.927Z,14.70
2018-05-03T08:19:39.401Z,14.80
2018-05-03T08:22:06.839Z,14.80
2018-05-03T08:24:35.015Z,14.90
2018-05-03T08:27:03.239Z,14.90
2018-05-03T08:29:30.660Z,14.90
2018-05-03T08:31:58.182Z,14.90
2018-05-03T08:34:25.603Z,15.00
2018-05-03T08:36:54.563Z,15.00
2018-05-03T08:39:21.970Z,15.00
2018-05-03T08:41:49.491Z,15.10
2018-05-03T08:44:16.906Z,15.10
2018-05-03T08:46:44.365Z,15.10
2018-05-03T08:49:11.801Z,15.20
2018-05-03T08:51:39.242Z,15.20
2018-05-03T08:54:07.414Z,15.40
2018-05-03T08:56:34.838Z,15.30
2018-05-03T08:59:02.294Z,15.40
2018-05-03T09:01:29.829Z,15.40
2018-05-03T09:03:57.177Z,15.50
2018-05-03T09:06:24.602Z,15.60
2018-05-03T09:08:52.075Z,15.70
2018-05-03T09:11:19.497Z,15.90
2018-05-03T09:13:46.921Z,16.00
2018-05-03T09:16:14.366Z,16.10
2018-05-03T09:18:42.546Z,16.20
2018-05-03T09:21:10.726Z,16.20
2018-05-03T09:23:38.927Z,16.20
2018-05-03T09:26:06.350Z,16.20
2018-05-03T09:28:33.883Z,16.30
2018-05-03T09:31:01.306Z,16.40
2018-05-03T09:33:28.723Z,16.60
2018-05-03T09:35:56.144Z,16.70
2018-05-03T09:38:23.663Z,16.90
2018-05-03T09:40:51.129Z,17.10
2018-05-03T09:43:19.274Z,17.30
2018-05-03T09:45:46.782Z,17.30
2018-05-03T09:48:14.206Z,17.50
2018-05-03T09:50:42.440Z,17.70
2018-05-03T09:53:09.912Z,17.70
2018-05-03T09:55:37.335Z,17.80
2018-05-03T09:58:05.571Z,18.00
2018-05-03T10:00:32.986Z,18.00
2018-05-03T10:03:00.406Z,18.40
2018-05-03T10:05:27.870Z,18.90
2018-05-03T10:07:55.286Z,19.10
2018-05-03T10:10:22.719Z,19.00
2018-05-03T10:12:50.179Z,18.90
2018-05-03T10:15:17.655Z,18.80
2018-05-03T10:17:45.124Z,18.80
2018-05-03T10:20:12.550Z,19.00
2018-05-03T10:22:40.877Z,19.40
2018-05-03T10:25:08.242Z,19.70
2018-05-03T10:27:35.716Z,20.10
2018-05-03T10:30:03.263Z,20.40
2018-05-03T10:32:30.597Z,20.60
2018-05-03T10:34:58.037Z,20.60
2018-05-03T10:37:25.446Z,20.80
2018-05-03T10:39:52.970Z,21.10
2018-05-03T10:42:20.476Z,21.50
2018-05-03T10:44:47.874Z,21.60
2018-05-03T10:47:16.062Z,21.50
2018-05-03T10:49:44.247Z,21.60
2018-05-03T10:52:12.438Z,21.60
2018-05-03T10:54:40.658Z,22.00
2018-05-03T10:57:08.119Z,22.00
2018-05-03T10:59:35.534Z,22.30
2018-05-03T11:02:03.064Z,22.40
2018-05-03T11:04:30.480Z,22.20
2018-05-03T11:06:57.902Z,21.80
2018-05-03T11:09:25.322Z,21.40
2018-05-03T11:11:52.751Z,21.50
2018-05-03T11:14:20.202Z,21.70
2018-05-03T11:16:47.772Z,21.60
2018-05-03T11:19:15.211Z,21.40
2018-05-03T11:21:42.593Z,21.10
2018-05-03T11:24:10.774Z,21.40
2018-05-03T11:26:38.967Z,22.00
2018-05-03T11:29:08.202Z,22.20
2018-05-03T11:31:35.639Z,22.20
2018-05-03T11:34:03.855Z,21.80
2018-05-03T11:36:31.282Z,21.80
2018-05-03T11:38:58.703Z,22.20
2018-05-03T11:41:26.169Z,22.90
2018-05-03T11:43:53.582Z,23.40
2018-05-03T11:46:20.998Z,23.90
2018-05-03T11:48:48.557Z,23.90
2018-05-03T11:51:15.940Z,23.80
2018-05-03T11:53:43.370Z,23.40
2018-05-03T11:56:10.782Z,22.90
2018-05-03T11:58:38.244Z,22.30
2018-05-03T12:01:05.662Z,21.80
2018-05-03T12:03:33.907Z,21.10
2018-05-03T12:06:01.467Z,21.10
2018-05-03T12:08:28.846Z,21.10
2018-05-03T12:10:56.314Z,21.10
2018-05-03T12:13:23.734Z,21.20
2018-05-03T12:15:51.155Z,21.30
2018-05-03T12:18:18.578Z,21.70
2018-05-03T12:20:46.092Z,21.80
2018-05-03T12:23:13.509Z,21.80
2018-05-03T12:25:40.929Z,21.70
2018-05-03T12:28:08.351Z,21.60
2018-05-03T12:30:35.783Z,21.40
2018-05-03T12:33:03.211Z,21.40
2018-05-03T12:35:31.401Z,21.70
2018-05-03T12:37:59.610Z,22.10
2018-05-03T12:40:27.043Z,22.00
2018-05-03T12:42:54.547Z,22.10
2018-05-03T12:45:21.974Z,22.10
2018-05-03T12:47:49.386Z,22.40
2018-05-03T12:50:16.819Z,22.70
2018-05-03T12:52:44.335Z,23.20
2018-05-03T12:55:11.798Z,23.70
2018-05-03T12:57:39.267Z,24.00
2018-05-03T13:00:06.690Z,23.90
2018-05-03T13:02:34.206Z,23.40
2018-05-03T13:05:01.630Z,23.00
2018-05-03T13:07:29.156Z,22.70
2018-05-03T13:09:56.578Z,23.00
2018-05-03T13:12:24.762Z,24.10
2018-05-03T13:14:52.272Z,24.10
2018-05-03T13:17:19.690Z,24.50
2018-05-03T13:19:47.123Z,24.80
2018-05-03T13:22:14.549Z,25.10
2018-05-03T13:24:42.749Z,25.70
2018-05-03T13:27:10.240Z,25.60
2018-05-03T13:29:37.656Z,25.90
2018-05-03T13:32:05.083Z,26.00
2018-05-03T13:34:32.557Z,26.10
2018-05-03T13:37:00.027Z,25.90
2018-05-03T13:39:27.447Z,25.40
2018-05-03T13:41:54.870Z,24.80
2018-05-03T13:44:22.332Z,24.20
2018-05-03T13:46:49.794Z,24.30
2018-05-03T13:49:17.263Z,24.40
2018-05-03T13:51:44.686Z,24.20
2018-05-03T13:54:12.202Z,24.10
2018-05-03T13:56:39.672Z,24.40
2018-05-03T13:59:08.815Z,25.40
2018-05-03T14:01:36.248Z,25.40
2018-05-03T14:04:03.724Z,25.90
2018-05-03T14:06:31.191Z,26.20
2018-05-03T14:08:58.601Z,26.40
2018-05-03T14:11:26.038Z,26.30
2018-05-03T14:13:53.499Z,26.40
2018-05-03T14:16:20.910Z,26.60
2018-05-03T14:18:48.435Z,26.70
2018-05-03T14:21:15.907Z,26.60
2018-05-03T14:23:43.330Z,26.50
2018-05-03T14:26:10.755Z,26.40
2018-05-03T14:28:38.316Z,26.20
2018-05-03T14:31:06.502Z,26.10
2018-05-03T14:33:33.922Z,26.10
2018-05-03T14:36:01.439Z,26.00
2018-05-03T14:38:28.915Z,25.60
2018-05-03T14:40:56.329Z,25.70
2018-05-03T14:43:23.858Z,25.70
2018-05-03T14:45:51.270Z,25.70
2018-05-03T14:48:18.795Z,25.20
2018-05-03T14:50:46.212Z,24.70
2018-05-03T14:53:13.739Z,24.30
2018-05-03T14:55:41.154Z,24.30
2018-05-03T14:58:08.582Z,24.60
2018-05-03T15:00:35.998Z,24.50
2018-05-03T15:03:03.510Z,24.20
2018-05-03T15:05:30.934Z,24.00
2018-05-03T15:07:58.407Z,23.70
2018-05-03T15:10:26.025Z,23.40
2018-05-03T15:12:53.430Z,23.10
2018-05-03T15:15:20.958Z,22.90
2018-05-03T15:17:48.431Z,22.80
2018-05-03T15:20:15.907Z,22.60
2018-05-03T15:22:43.322Z,22.60
2018-05-03T15:25:10.755Z,23.10
2018-05-03T15:27:38.309Z,23.70
2018-05-03T15:30:06.474Z,24.50
2018-05-03T15:32:34.671Z,24.80
2018-05-03T15:35:03.981Z,24.80
2018-05-03T15:37:31.661Z,25.00
2018-05-03T15:39:59.146Z,25.20
2018-05-03T15:42:26.566Z,25.40
2018-05-03T15:44:54.087Z,25.40
2018-05-03T15:47:21.505Z,25.40
2018-05-03T15:49:49.021Z,25.50
2018-05-03T15:52:16.438Z,25.60
2018-05-03T15:54:44.629Z,25.10
2018-05-03T15:57:13.585Z,24.90
2018-05-03T15:59:41.059Z,24.90
2018-05-03T16:02:08.518Z,24.90
2018-05-03T16:04:35.992Z,24.80
2018-05-03T16:07:04.319Z,24.50
2018-05-03T16:09:31.742Z,24.50
2018-05-03T16:11:59.166Z,24.70
2018-05-03T16:14:26.690Z,24.90
2018-05-03T16:16:54.122Z,24.90
2018-05-03T16:19:21.630Z,24.80
2018-05-03T16:21:49.059Z,24.60
2018-05-03T16:24:16.474Z,24.30
2018-05-03T16:26:43.904Z,24.10
2018-05-03T16:29:12.275Z,24.00
2018-05-03T16:31:39.815Z,23.80
2018-05-03T16:34:07.270Z,23.60
2018-05-03T16:36:34.698Z,23.60
2018-05-03T16:39:02.113Z,23.50
2018-05-03T16:41:29.548Z,23.30
2018-05-03T16:43:57.731Z,22.70
2018-05-03T16:46:25.933Z,22.50
2018-05-03T16:48:54.143Z,22.20
2018-05-03T16:51:21.571Z,22.20
2018-05-03T16:53:48.994Z,22.00
2018-05-03T16:56:16.458Z,21.70
2018-05-03T16:58:43.871Z,21.50
2018-05-03T17:01:11.303Z,21.40
2018-05-03T17:03:38.725Z,21.10
2018-05-03T17:06:06.911Z,20.80
2018-05-03T17:08:35.122Z,20.70
2018-05-03T17:11:02.538Z,20.70
2018-05-03T17:13:30.063Z,20.60
2018-05-03T17:15:57.477Z,20.50
2018-05-03T17:18:24.906Z,20.30
2018-05-03T17:20:52.371Z,20.30
2018-05-03T17:23:19.853Z,20.20
2018-05-03T17:25:47.269Z,20.10
2018-05-03T17:28:14.782Z,20.00
2018-05-03T17:30:42.207Z,19.90
2018-05-03T17:33:09.735Z,19.80
2018-05-03T17:35:37.194Z,19.70
2018-05-03T17:38:04.665Z,19.70
2018-05-03T17:40:32.135Z,19.60
2018-05-03T17:42:59.566Z,19.50
2018-05-03T17:45:27.791Z,19.30
2018-05-03T17:47:55.211Z,19.30
2018-05-03T17:50:22.635Z,19.10
2018-05-03T17:52:50.051Z,19.00
2018-05-03T17:55:17.567Z,18.80
2018-05-03T17:57:45.041Z,18.60
2018-05-03T18:00:12.511Z,18.50
2018-05-03T18:02:39.982Z,18.50
2018-05-03T18:05:07.451Z,18.40
2018-05-03T18:07:34.866Z,18.30
2018-05-03T18:10:03.099Z,18.20
2018-05-03T18:12:31.112Z,18.10
2018-05-03T18:14:58.626Z,18.10
2018-05-03T18:17:26.023Z,18.10
2018-05-03T18:19:53.454Z,18.10
2018-05-03T18:22:20.870Z,18.10
2018-05-03T18:24:48.335Z,18.00
2018-05-03T18:27:15.755Z,18.00
2018-05-03T18:29:43.178Z,17.90
2018-05-03T18:32:10.638Z,17.90
2018-05-03T18:34:38.066Z,17.90
2018-05-03T18:37:05.482Z,17.80
2018-05-03T18:39:32.954Z,17.70
2018-05-03T18:42:00.420Z,17.70
2018-05-03T18:44:27.834Z,17.60
2018-05-03T18:46:55.261Z,17.50
2018-05-03T18:49:22.741Z,17.50
2018-05-03T18:51:50.115Z,17.40
2018-05-03T18:54:17.534Z,17.40
2018-05-03T18:56:45.722Z,17.30
2018-05-03T18:59:13.934Z,17.20
2018-05-03T19:01:41.361Z,17.20
2018-05-03T19:04:08.779Z,17.10
2018-05-03T19:06:36.245Z,17.10
2018-05-03T19:09:03.663Z,17.10
2018-05-03T19:11:31.158Z,17.10
2018-05-03T19:13:58.503Z,17.00
2018-05-03T19:16:26.083Z,17.00
2018-05-03T19:18:53.602Z,17.00
2018-05-03T19:21:21.030Z,16.90
2018-05-03T19:23:49.277Z,16.80
2018-05-03T19:26:16.626Z,16.80
2018-05-03T19:28:44.090Z,16.80
2018-05-03T19:31:11.560Z,16.80
2018-05-03T19:33:39.127Z,16.70
2018-05-03T19:36:06.598Z,16.70
2018-05-03T19:38:34.018Z,16.70
2018-05-03T19:41:01.536Z,16.60
2018-05-03T19:43:29.096Z,16.60
2018-05-03T19:45:56.480Z,16.50
2018-05-03T19:48:23.947Z,16.50
2018-05-03T19:50:51.367Z,16.50
2018-05-03T19:53:18.888Z,16.40
2018-05-03T19:55:46.363Z,16.40
2018-05-03T19:58:13.787Z,16.30
2018-05-03T20:00:41.210Z,16.20
2018-05-03T20:03:08.639Z,16.20
2018-05-03T20:05:36.849Z,16.10
2018-05-03T20:08:04.332Z,16.10
2018-05-03T20:10:31.754Z,16.10
2018-05-03T20:12:59.258Z,16.00
2018-05-03T20:15:26.684Z,15.90
2018-05-03T20:17:54.199Z,15.90
2018-05-03T20:20:21.623Z,15.90
2018-05-03T20:22:50.555Z,15.70
2018-05-03T20:25:18.758Z,15.70
2018-05-03T20:27:46.173Z,15.70
2018-05-03T20:30:13.602Z,15.70
2018-05-03T20:32:41.083Z,15.60
2018-05-03T20:35:09.221Z,15.50
2018-05-03T20:37:37.439Z,15.60
2018-05-03T20:40:04.871Z,15.50
2018-05-03T20:42:33.059Z,15.50
2018-05-03T20:45:00.567Z,15.50
2018-05-03T20:47:28.045Z,15.50
2018-05-03T20:49:55.466Z,15.50
2018-05-03T20:52:22.994Z,15.40
2018-05-03T20:54:50.463Z,15.40
2018-05-03T20:57:18.052Z,15.40
2018-05-03T20:59:45.487Z,15.40
2018-05-03T21:02:12.970Z,15.30
2018-05-03T21:04:40.542Z,15.20
2018-05-03T21:07:08.003Z,15.20
2018-05-03T21:09:35.470Z,15.20
2018-05-03T21:12:02.895Z,15.20
2018-05-03T21:14:31.078Z,15.10
2018-05-03T21:16:58.602Z,15.10
2018-05-03T21:19:26.014Z,15.10
2018-05-03T21:21:53.538Z,15.00
2018-05-03T21:24:21.016Z,15.00
2018-05-03T21:26:48.461Z,15.00
2018-05-03T21:29:16.644Z,14.90
2018-05-03T21:31:44.847Z,14.80
2018-05-03T21:34:12.262Z,14.80
2018-05-03T21:36:39.711Z,14.70
2018-05-03T21:39:07.138Z,14.70
2018-05-03T21:41:35.378Z,14.70
2018-05-03T21:44:02.773Z,14.60
2018-05-03T21:46:30.186Z,14.60
2018-05-03T21:48:57.618Z,14.60
2018-05-03T21:51:25.799Z,14.50
2018-05-03T21:53:54.026Z,14.50
2018-05-03T21:56:21.502Z,14.50
2018-05-03T21:58:48.935Z,14.50
2018-05-03T22:01:16.348Z,14.50
2018-05-03T22:03:43.815Z,14.50
2018-05-03T22:06:11.222Z,14.40
2018-05-03T22:08:38.745Z,14.40
2018-05-03T22:11:06.163Z,14.40
2018-05-03T22:13:33.595Z,14.40
2018-05-03T22:16:01.010Z,14.40
2018-05-03T22:18:28.445Z,14.30
2018-05-03T22:20:55.860Z,14.30
2018-05-03T22:23:24.074Z,14.20
2018-05-03T22:25:51.526Z,14.20
2018-05-03T22:28:18.907Z,14.10
2018-05-03T22:30:46.383Z,14.10
2018-05-03T22:33:13.798Z,14.10
2018-05-03T22:35:41.232Z,14.10
2018-05-03T22:38:08.651Z,14.10
2018-05-03T22:40:36.083Z,14.10
2018-05-03T22:43:03.507Z,14.10
2018-05-03T22:45:31.700Z,14.00
2018-05-03T22:47:59.906Z,14.00
2018-05-03T22:50:27.386Z,13.90
2018-05-03T22:52:54.751Z,13.90
2018-05-03T22:55:22.179Z,13.90
2018-05-03T22:57:50.357Z,13.80
2018-05-03T23:00:17.786Z,13.80
2018-05-03T23:02:45.206Z,13.80
2018-05-03T23:05:13.399Z,13.70
2018-05-03T23:07:41.579Z,13.70
2018-05-03T23:10:09.802Z,13.70
2018-05-03T23:12:37.265Z,13.60
2018-05-03T23:15:04.712Z,13.70
2018-05-03T23:17:32.894Z,13.70
2018-05-03T23:20:01.082Z,13.60
2018-05-03T23:22:32.095Z,13.50
2018-05-03T23:24:59.534Z,13.50
2018-05-03T23:27:26.961Z,13.50
2018-05-03T23:29:55.147Z,13.50
2018-05-03T23:32:22.662Z,13.50
2018-05-03T23:34:50.079Z,13.50
2018-05-03T23:37:19.020Z,13.40
2018-05-03T23:39:46.433Z,13.40
2018-05-03T23:42:13.867Z,13.40
2018-05-03T23:44:41.343Z,13.40
2018-05-03T23:47:08.762Z,13.40
2018-05-03T23:49:36.179Z,13.40
2018-05-03T23:52:03.612Z,13.30
2018-05-03T23:54:31.795Z,13.30
2018-05-03T23:57:00.015Z,13.30
2018-05-03T23:59:27.442Z,13.30
